createdAt,value
2018-12-05T00:00:26.814Z,99086.42
2018-12-05T00:02:55.669Z,99080.95
2018-12-05T00:05:24.538Z,99082.77
2018-12-05T00:07:53.455Z,99072.75
2018-12-05T00:10:22.345Z,99080.92
2018-12-05T00:12:51.239Z,99075.58
2018-12-05T00:15:20.085Z,99080.27
2018-12-05T00:17:49.125Z,99085.44
2018-12-05T00:20:18.053Z,99074.70
2018-12-05T00:22:46.991Z,99072.31
2018-12-05T00:25:15.891Z,99068.95
2018-12-05T00:27:44.779Z,99072.39
2018-12-05T00:30:14.042Z,99074.53
2018-12-05T00:32:43.230Z,99076.53
2018-12-05T00:35:12.164Z,99085.61
2018-12-05T00:37:41.121Z,99081.55
2018-12-05T00:40:11.090Z,99083.94
2018-12-05T00:42:39.925Z,99082.94
2018-12-05T00:45:09.093Z,99089.95
2018-12-05T00:47:37.954Z,99088.95
2018-12-05T00:50:06.922Z,99091.57
2018-12-05T00:52:35.941Z,99089.33
2018-12-05T00:55:05.138Z,99090.67
2018-12-05T00:57:33.990Z,99086.42
2018-12-05T01:00:04.085Z,99090.19
2018-12-05T01:02:32.992Z,99098.68
2018-12-05T01:05:01.993Z,99098.63
2018-12-05T01:07:31.027Z,99092.23
2018-12-05T01:09:59.919Z,99095.15
2018-12-05T01:12:28.799Z,99097.77
2018-12-05T01:14:59.138Z,99103.89
2018-12-05T01:17:28.238Z,99100.83
2018-12-05T01:19:57.086Z,99098.68
2018-12-05T01:22:26.004Z,99104.55
2018-12-05T01:24:54.950Z,99102.79
2018-12-05T01:27:23.783Z,99111.91
2018-12-05T01:29:52.628Z,99115.63
2018-12-05T01:32:21.482Z,99113.16
2018-12-05T01:34:50.327Z,99116.44
2018-12-05T01:37:19.236Z,99099.06
2018-12-05T01:39:48.438Z,99101.98
2018-12-05T01:42:17.286Z,99102.81
2018-12-05T01:44:46.627Z,99110.78
2018-12-05T01:47:15.563Z,99118.98
2018-12-05T01:49:44.437Z,99117.08
2018-12-05T01:52:13.318Z,99121.52
2018-12-05T01:54:42.180Z,99111.02
2018-12-05T01:57:12.005Z,99114.97
2018-12-05T01:59:40.850Z,99113.24
2018-12-05T02:02:09.756Z,99116.55
2018-12-05T02:04:38.694Z,99108.02
2018-12-05T02:07:07.543Z,99102.08
2018-12-05T02:09:36.466Z,99089.81
2018-12-05T02:12:05.428Z,99091.83
2018-12-05T02:14:34.328Z,99100.50
2018-12-05T02:17:03.176Z,99097.11
2018-12-05T02:19:32.070Z,99091.57
2018-12-05T02:22:00.917Z,99090.90
2018-12-05T02:24:29.827Z,99094.14
2018-12-05T02:26:58.742Z,99099.10
2018-12-05T02:29:31.900Z,99095.73
2018-12-05T02:32:00.732Z,99089.05
2018-12-05T02:34:29.587Z,99089.27
2018-12-05T02:36:58.432Z,99091.81
2018-12-05T02:39:27.401Z,99104.06
2018-12-05T02:41:56.275Z,99096.52
2018-12-05T02:44:25.133Z,99091.41
2018-12-05T02:46:53.976Z,99086.77
2018-12-05T02:49:23.065Z,99080.22
2018-12-05T02:51:51.916Z,99071.87
2018-12-05T02:54:20.745Z,99076.61
2018-12-05T02:56:49.582Z,99081.78
2018-12-05T02:59:18.518Z,99078.83
2018-12-05T03:01:47.357Z,99078.92
2018-12-05T03:04:16.199Z,99071.79
2018-12-05T03:06:45.108Z,99087.03
2018-12-05T03:09:13.950Z,99091.91
2018-12-05T03:11:42.792Z,99093.88
2018-12-05T03:14:11.653Z,99106.02
2018-12-05T03:16:40.589Z,99114.04
2018-12-05T03:19:09.576Z,99110.88
2018-12-05T03:21:38.535Z,99107.23
2018-12-05T03:24:07.525Z,99113.80
2018-12-05T03:26:37.431Z,99111.28
2018-12-05T03:29:06.881Z,99117.24
2018-12-05T03:31:35.869Z,99115.78
2018-12-05T03:34:05.992Z,99107.80
2018-12-05T03:36:34.836Z,99108.24
2018-12-05T03:39:05.976Z,99107.34
2018-12-05T03:41:34.891Z,99106.30
2018-12-05T03:44:03.898Z,99107.06
2018-12-05T03:46:32.999Z,99105.32
2018-12-05T03:49:01.849Z,99102.12
2018-12-05T03:51:30.767Z,99103.98
2018-12-05T03:53:59.683Z,99092.75
2018-12-05T03:56:28.606Z,99100.45
2018-12-05T03:58:57.474Z,99097.22
2018-12-05T04:01:26.486Z,99102.28
2018-12-05T04:03:55.356Z,99096.89
2018-12-05T04:06:24.206Z,99105.52
2018-12-05T04:08:53.110Z,99097.53
2018-12-05T04:11:21.936Z,99101.55
2018-12-05T04:13:50.774Z,99100.78
2018-12-05T04:16:19.744Z,99098.95
2018-12-05T04:18:48.585Z,99098.50
2018-12-05T04:21:17.432Z,99098.77
2018-12-05T04:23:46.362Z,99091.12
2018-12-05T04:26:15.284Z,99103.31
2018-12-05T04:28:44.248Z,99102.78
2018-12-05T04:31:13.296Z,99101.23
2018-12-05T04:33:44.245Z,99102.58
2018-12-05T04:36:13.238Z,99106.84
2018-12-05T04:38:42.040Z,99108.42
2018-12-05T04:41:10.890Z,99113.78
2018-12-05T04:43:39.801Z,99109.80
2018-12-05T04:46:08.804Z,99105.22
2018-12-05T04:48:38.600Z,99112.76
2018-12-05T04:51:07.505Z,99111.66
2018-12-05T04:53:36.401Z,99122.91
2018-12-05T04:56:05.382Z,99120.75
2018-12-05T04:58:34.233Z,99117.30
2018-12-05T05:01:03.127Z,99124.52
2018-12-05T05:03:32.043Z,99124.00
2018-12-05T05:06:00.891Z,99129.92
2018-12-05T05:08:29.733Z,99135.31
2018-12-05T05:10:58.819Z,99134.78
2018-12-05T05:13:27.719Z,99136.41
2018-12-05T05:15:57.526Z,99138.84
2018-12-05T05:18:26.362Z,99145.78
2018-12-05T05:20:55.239Z,99148.17
2018-12-05T05:23:24.063Z,99152.52
2018-12-05T05:25:52.907Z,99156.28
2018-12-05T05:28:22.071Z,99161.96
2018-12-05T05:30:50.914Z,99160.09
2018-12-05T05:33:19.761Z,99161.27
2018-12-05T05:35:48.691Z,99162.56
2018-12-05T05:38:17.503Z,99170.59
2018-12-05T05:43:21.521Z,99173.84
2018-12-05T05:45:50.499Z,99163.09
2018-12-05T05:48:19.932Z,99162.32
2018-12-05T05:50:48.808Z,99156.89
2018-12-05T05:53:18.602Z,99160.73
2018-12-05T05:55:47.458Z,99163.41
2018-12-05T05:58:16.365Z,99169.23
2018-12-05T06:00:45.280Z,99166.30
2018-12-05T06:03:14.110Z,99172.15
2018-12-05T06:05:42.970Z,99170.03
2018-12-05T06:08:11.804Z,99165.11
2018-12-05T06:10:40.656Z,99173.28
2018-12-05T06:13:09.528Z,99174.74
2018-12-05T06:15:38.376Z,99171.02
2018-12-05T06:18:07.208Z,99170.13
2018-12-05T06:20:36.144Z,99182.34
2018-12-05T06:23:04.976Z,99181.44
2018-12-05T06:25:33.830Z,99182.47
2018-12-05T06:28:02.679Z,99181.89
2018-12-05T06:30:31.527Z,99179.30
2018-12-05T06:33:00.350Z,99181.52
2018-12-05T06:35:29.207Z,99188.17
2018-12-05T06:37:58.119Z,99185.91
2018-12-05T06:40:27.023Z,99188.09
2018-12-05T06:42:55.878Z,99196.61
2018-12-05T06:45:24.727Z,99208.42
2018-12-05T06:47:53.571Z,99208.63
2018-12-05T06:50:22.867Z,99211.67
2018-12-05T06:52:51.809Z,99216.73
2018-12-05T06:55:20.878Z,99212.72
2018-12-05T06:57:49.784Z,99210.73
2018-12-05T07:00:20.442Z,99209.52
2018-12-05T07:02:49.331Z,99207.81
2018-12-05T07:05:18.281Z,99202.02
2018-12-05T07:07:47.360Z,99204.73
2018-12-05T07:10:16.362Z,99208.70
2018-12-05T07:12:45.230Z,99215.44
2018-12-05T07:15:14.088Z,99204.20
2018-12-05T07:17:43.052Z,99209.07
2018-12-05T07:20:11.896Z,99215.32
2018-12-05T07:22:40.904Z,99214.88
2018-12-05T07:25:09.791Z,99210.77
2018-12-05T07:27:38.715Z,99201.91
2018-12-05T07:30:07.783Z,99208.20
2018-12-05T07:32:36.643Z,99205.69
2018-12-05T07:35:06.193Z,99212.42
2018-12-05T07:37:35.142Z,99213.01
2018-12-05T07:40:04.220Z,99205.77
2018-12-05T07:42:33.163Z,99195.86
2018-12-05T07:45:02.084Z,99203.35
2018-12-05T07:47:31.311Z,99206.00
2018-12-05T07:50:00.192Z,99213.23
2018-12-05T07:52:29.119Z,99221.31
2018-12-05T07:54:58.126Z,99221.61
2018-12-05T07:57:27.128Z,99228.91
2018-12-05T07:59:57.078Z,99222.77
2018-12-05T08:02:26.041Z,99231.91
2018-12-05T08:04:54.983Z,99227.52
2018-12-05T08:07:23.970Z,99229.77
2018-12-05T08:09:52.902Z,99230.83
2018-12-05T08:12:21.736Z,99232.52
2018-12-05T08:14:50.768Z,99226.12
2018-12-05T08:17:20.603Z,99226.63
2018-12-05T08:19:49.704Z,99230.48
2018-12-05T08:22:18.593Z,99230.76
2018-12-05T08:24:47.567Z,99235.12
2018-12-05T08:27:16.459Z,99234.45
2018-12-05T08:29:45.398Z,99242.02
2018-12-05T08:32:14.366Z,99242.16
2018-12-05T08:34:43.334Z,99236.55
2018-12-05T08:37:12.239Z,99240.85
2018-12-05T08:39:41.123Z,99237.02
2018-12-05T08:42:10.848Z,99239.66
2018-12-05T08:44:39.982Z,99237.58
2018-12-05T08:47:09.091Z,99239.66
2018-12-05T08:49:38.004Z,99233.14
2018-12-05T08:52:08.384Z,99227.02
2018-12-05T08:54:37.340Z,99226.36
2018-12-05T08:57:06.269Z,99223.35
2018-12-05T08:59:35.151Z,99225.60
2018-12-05T09:02:04.077Z,99222.74
2018-12-05T09:04:32.972Z,99221.98
2018-12-05T09:07:01.923Z,99231.46
2018-12-05T09:09:30.907Z,99225.11
2018-12-05T09:11:59.859Z,99237.25
2018-12-05T09:14:29.371Z,99227.99
2018-12-05T09:16:58.223Z,99230.26
2018-12-05T09:19:27.139Z,99210.23
2018-12-05T09:21:56.023Z,99209.92
2018-12-05T09:24:24.951Z,99210.33
2018-12-05T09:26:53.891Z,99213.38
2018-12-05T09:29:22.751Z,99203.86
2018-12-05T09:31:51.612Z,99206.83
2018-12-05T09:34:20.470Z,99206.08
2018-12-05T09:36:49.350Z,99208.73
2018-12-05T09:39:19.304Z,99204.44
2018-12-05T09:41:48.198Z,99198.81
2018-12-05T09:44:17.222Z,99201.77
2018-12-05T09:46:47.202Z,99195.37
2018-12-05T09:49:17.257Z,99192.48
2018-12-05T09:51:46.088Z,99183.89
2018-12-05T09:54:14.928Z,99186.59
2018-12-05T09:56:43.892Z,99173.89
2018-12-05T09:59:12.763Z,99163.37
2018-12-05T10:01:41.734Z,99161.49
2018-12-05T10:04:10.600Z,99166.88
2018-12-05T10:06:39.527Z,99157.97
2018-12-05T10:09:09.338Z,99156.38
2018-12-05T10:11:38.311Z,99156.91
2018-12-05T10:14:07.365Z,99158.52
2018-12-05T10:16:36.223Z,99159.61
2018-12-05T10:19:05.143Z,99170.66
2018-12-05T10:21:34.059Z,99163.36
2018-12-05T10:24:03.060Z,99163.66
2018-12-05T10:26:32.037Z,99154.46
2018-12-05T10:29:00.878Z,99157.12
2018-12-05T10:31:29.788Z,99154.17
2018-12-05T10:33:58.648Z,99157.41
2018-12-05T10:36:27.646Z,99158.47
2018-12-05T10:38:56.662Z,99150.34
2018-12-05T10:41:25.999Z,99147.75
2018-12-05T10:43:55.074Z,99155.39
2018-12-05T10:46:24.614Z,99145.97
2018-12-05T10:48:54.677Z,99134.95
2018-12-05T10:51:23.855Z,99138.24
2018-12-05T10:53:52.755Z,99129.31
2018-12-05T10:56:21.711Z,99122.09
2018-12-05T10:58:50.554Z,99119.12
2018-12-05T11:01:24.899Z,99122.01
2018-12-05T11:03:53.859Z,99108.95
2018-12-05T11:06:28.085Z,99113.01
2018-12-05T11:09:02.268Z,99103.30
2018-12-05T11:12:37.320Z,99101.63
2018-12-05T11:15:13.552Z,99095.75
2018-12-05T11:17:46.638Z,99087.61
2018-12-05T11:20:20.980Z,99083.23
2018-12-05T11:22:55.359Z,99085.63
2018-12-05T11:25:24.347Z,99082.70
2018-12-05T11:27:53.360Z,99076.89
2018-12-05T11:30:22.255Z,99076.38
2018-12-05T11:32:51.192Z,99075.30
2018-12-05T11:35:20.165Z,99075.05
2018-12-05T11:37:49.107Z,99079.09
2018-12-05T11:40:18.090Z,99083.14
2018-12-05T11:42:46.955Z,99077.12
2018-12-05T11:45:15.843Z,99075.50
2018-12-05T11:47:44.751Z,99083.09
2018-12-05T11:50:13.615Z,99077.64
2018-12-05T11:52:43.519Z,99078.76
2018-12-05T11:55:12.403Z,99074.65
2018-12-05T11:57:41.359Z,99076.86
2018-12-05T12:00:10.554Z,99076.73
2018-12-05T12:02:39.365Z,99070.27
2018-12-05T12:05:10.315Z,99062.48
2018-12-05T12:07:39.167Z,99056.55
2018-12-05T12:10:08.210Z,99056.19
2018-12-05T12:12:42.463Z,99052.80
2018-12-05T12:15:11.505Z,99041.30
2018-12-05T12:17:41.939Z,99038.63
2018-12-05T12:20:10.895Z,99033.44
2018-12-05T12:22:39.941Z,99043.56
2018-12-05T12:25:08.993Z,99032.80
2018-12-05T12:27:37.854Z,99023.47
2018-12-05T12:30:06.822Z,99018.66
2018-12-05T12:32:35.732Z,99016.46
2018-12-05T12:35:04.693Z,99021.11
2018-12-05T12:37:33.572Z,99018.84
2018-12-05T12:40:02.432Z,99020.31
2018-12-05T12:42:31.392Z,99020.70
2018-12-05T12:45:00.291Z,99014.31
2018-12-05T12:47:29.590Z,99004.75
2018-12-05T12:49:58.451Z,99000.69
2018-12-05T12:52:27.324Z,99001.28
2018-12-05T12:54:56.232Z,98995.26
2018-12-05T12:57:25.115Z,98995.30
2018-12-05T12:59:54.378Z,98990.35
2018-12-05T13:02:23.703Z,98978.66
2018-12-05T13:04:52.915Z,98981.30
2018-12-05T13:07:21.796Z,98983.36
2018-12-05T13:09:50.690Z,98978.34
2018-12-05T13:12:24.931Z,98975.52
2018-12-05T13:14:53.794Z,98970.09
2018-12-05T13:17:22.611Z,98978.98
2018-12-05T13:19:51.509Z,98975.01
2018-12-05T13:22:20.375Z,98972.62
2018-12-05T13:24:49.211Z,98973.74
2018-12-05T13:27:18.119Z,98964.33
2018-12-05T13:29:46.975Z,98964.59
2018-12-05T13:32:15.829Z,98955.48
2018-12-05T13:34:44.687Z,98954.73
2018-12-05T13:37:13.599Z,98959.27
2018-12-05T13:39:42.494Z,98957.44
2018-12-05T13:42:11.395Z,98963.12
2018-12-05T13:44:40.379Z,98958.00
2018-12-05T13:47:09.266Z,98957.02
2018-12-05T13:49:38.216Z,98961.07
2018-12-05T13:52:07.110Z,98956.22
2018-12-05T13:54:35.939Z,98957.58
2018-12-05T13:57:05.037Z,98951.78
2018-12-05T13:59:33.858Z,98951.31
2018-12-05T14:02:02.718Z,98951.92
2018-12-05T14:04:31.558Z,98966.48
2018-12-05T14:07:00.403Z,98964.64
2018-12-05T14:09:29.235Z,98954.93
2018-12-05T14:11:58.074Z,98960.62
2018-12-05T14:14:26.903Z,98961.73
2018-12-05T14:16:55.734Z,98960.09
2018-12-05T14:19:24.766Z,98943.16
2018-12-05T14:21:53.600Z,98940.20
2018-12-05T14:24:22.532Z,98935.38
2018-12-05T14:26:51.442Z,98931.30
2018-12-05T14:29:20.270Z,98938.05
2018-12-05T14:31:49.195Z,98931.88
2018-12-05T14:34:18.104Z,98935.69
2018-12-05T14:36:46.925Z,98929.50
2018-12-05T14:39:15.759Z,98929.23
2018-12-05T14:41:44.639Z,98921.70
2018-12-05T14:44:14.486Z,98920.36
2018-12-05T14:46:43.323Z,98916.58
2018-12-05T14:49:12.258Z,98914.73
2018-12-05T14:51:41.384Z,98920.94
2018-12-05T14:54:10.227Z,98917.16
2018-12-05T14:56:39.391Z,98917.66
2018-12-05T14:59:08.319Z,98917.39
2018-12-05T15:01:37.199Z,98916.88
2018-12-05T15:04:06.279Z,98913.14
2018-12-05T15:06:35.125Z,98918.77
2018-12-05T15:09:06.550Z,98919.86
2018-12-05T15:11:36.670Z,98931.72
2018-12-05T15:14:05.597Z,98932.53
2018-12-05T15:16:34.486Z,98919.59
2018-12-05T15:19:03.318Z,98919.06
2018-12-05T15:21:32.245Z,98924.94
2018-12-05T15:24:01.083Z,98923.84
2018-12-05T15:26:30.246Z,98906.63
2018-12-05T15:28:59.155Z,98903.13
2018-12-05T15:31:27.998Z,98914.64
2018-12-05T15:33:57.010Z,98912.48
2018-12-05T15:36:26.200Z,98911.65
2018-12-05T15:38:55.176Z,98912.99
2018-12-05T15:41:24.067Z,98906.80
2018-12-05T15:43:53.031Z,98909.22
2018-12-05T15:46:21.868Z,98905.47
2018-12-05T15:48:51.764Z,98900.10
2018-12-05T15:51:20.778Z,98900.93
2018-12-05T15:53:49.638Z,98895.05
2018-12-05T15:56:18.464Z,98902.28
2018-12-05T15:58:47.427Z,98892.87
2018-12-05T16:01:16.312Z,98886.14
2018-12-05T16:03:45.199Z,98884.00
2018-12-05T16:06:14.451Z,98878.66
2018-12-05T16:08:43.493Z,98878.92
2018-12-05T16:11:12.327Z,98862.22
2018-12-05T16:13:41.187Z,98871.89
2018-12-05T16:16:16.385Z,98862.76
2018-12-05T16:18:45.327Z,98861.95
2018-12-05T16:21:14.575Z,98871.63
2018-12-05T16:23:43.499Z,98873.77
2018-12-05T16:26:12.407Z,98875.38
2018-12-05T16:28:41.261Z,98871.07
2018-12-05T16:31:10.091Z,98858.44
2018-12-05T16:33:38.932Z,98856.02
2018-12-05T16:36:11.361Z,98857.08
2018-12-05T16:38:38.687Z,98856.01
2018-12-05T16:41:07.671Z,98849.03
2018-12-05T16:43:36.555Z,98853.33
2018-12-05T16:46:05.480Z,98858.97
2018-12-05T16:48:34.438Z,98857.89
2018-12-05T16:51:03.297Z,98854.66
2018-12-05T16:53:32.258Z,98857.09
2018-12-05T16:56:01.120Z,98863.52
2018-12-05T16:58:30.016Z,98875.30
2018-12-05T17:00:58.908Z,98854.06
2018-12-05T17:03:27.799Z,98857.28
2018-12-05T17:05:56.636Z,98861.05
2018-12-05T17:08:25.473Z,98857.56
2018-12-05T17:10:54.312Z,98859.19
2018-12-05T17:13:23.232Z,98854.39
2018-12-05T17:15:52.160Z,98840.16
2018-12-05T17:18:21.050Z,98826.99
2018-12-05T17:20:49.897Z,98831.56
2018-12-05T17:23:18.890Z,98823.77
2018-12-05T17:25:47.867Z,98820.27
2018-12-05T17:28:16.695Z,98818.39
2018-12-05T17:30:45.583Z,98817.59
2018-12-05T17:33:14.479Z,98828.35
2018-12-05T17:35:43.407Z,98822.44
2018-12-05T17:38:12.259Z,98812.50
2018-12-05T17:40:41.243Z,98813.03
2018-12-05T17:43:10.127Z,98806.58
2018-12-05T17:45:39.035Z,98801.20
2018-12-05T17:48:08.927Z,98804.46
2018-12-05T17:50:37.759Z,98803.11
2018-12-05T17:53:06.754Z,98789.13
2018-12-05T17:55:35.597Z,98780.53
2018-12-05T17:58:04.503Z,98784.84
2018-12-05T18:00:33.351Z,98781.31
2018-12-05T18:03:02.267Z,98776.20
2018-12-05T18:05:31.166Z,98784.27
2018-12-05T18:08:00.071Z,98786.69
2018-12-05T18:10:28.974Z,98790.17
2018-12-05T18:12:57.842Z,98789.91
2018-12-05T18:15:26.734Z,98778.84
2018-12-05T18:17:55.668Z,98777.00
2018-12-05T18:20:24.516Z,98770.02
2018-12-05T18:22:53.431Z,98754.44
2018-12-05T18:25:22.343Z,98755.23
2018-12-05T18:27:51.184Z,98751.75
2018-12-05T18:30:20.034Z,98760.08
2018-12-05T18:32:48.865Z,98763.00
2018-12-05T18:35:17.760Z,98758.96
2018-12-05T18:37:46.735Z,98746.33
2018-12-05T18:40:15.628Z,98746.31
2018-12-05T18:42:44.499Z,98743.31
2018-12-05T18:45:13.547Z,98740.34
2018-12-05T18:47:42.530Z,98742.48
2018-12-05T18:50:11.375Z,98743.58
2018-12-05T18:52:40.246Z,98746.81
2018-12-05T18:55:09.202Z,98744.87
2018-12-05T18:57:39.834Z,98738.08
2018-12-05T19:00:10.926Z,98733.23
2018-12-05T19:02:39.843Z,98730.54
2018-12-05T19:05:08.946Z,98727.34
2018-12-05T19:07:37.820Z,98723.36
2018-12-05T19:10:06.810Z,98729.24
2018-12-05T19:12:35.636Z,98716.91
2018-12-05T19:15:05.129Z,98714.48
2018-12-05T19:17:34.004Z,98705.95
2018-12-05T19:20:02.991Z,98708.10
2018-12-05T19:22:31.881Z,98707.56
2018-12-05T19:25:00.767Z,98701.89
2018-12-05T19:27:29.953Z,98704.89
2018-12-05T19:29:58.852Z,98700.05
2018-12-05T19:32:27.867Z,98701.14
2018-12-05T19:34:56.831Z,98695.24
2018-12-05T19:37:25.744Z,98691.27
2018-12-05T19:39:54.732Z,98685.09
2018-12-05T19:42:23.626Z,98678.91
2018-12-05T19:44:52.630Z,98675.41
2018-12-05T19:47:21.625Z,98673.27
2018-12-05T19:49:50.541Z,98671.95
2018-12-05T19:52:19.480Z,98674.07
2018-12-05T19:54:48.356Z,98672.19
2018-12-05T19:57:17.480Z,98670.05
2018-12-05T19:59:46.362Z,98667.89
2018-12-05T20:02:15.276Z,98667.36
2018-12-05T20:04:44.196Z,98669.78
2018-12-05T20:07:13.096Z,98664.14
2018-12-05T20:09:43.040Z,98659.03
2018-12-05T20:12:11.935Z,98642.91
2018-12-05T20:14:40.837Z,98649.63
2018-12-05T20:17:09.781Z,98633.52
2018-12-05T20:19:38.612Z,98635.13
2018-12-05T20:22:07.527Z,98636.20
2018-12-05T20:24:36.427Z,98642.39
2018-12-05T20:27:05.300Z,98632.17
2018-12-05T20:29:34.184Z,98644.80
2018-12-05T20:32:03.136Z,98631.38
2018-12-05T20:34:32.742Z,98631.34
2018-12-05T20:37:01.651Z,98626.52
2018-12-05T20:39:30.595Z,98618.73
2018-12-05T20:42:03.063Z,98611.75
2018-12-05T20:44:32.255Z,98603.69
2018-12-05T20:47:01.096Z,98605.30
2018-12-05T20:49:30.181Z,98605.58
2018-12-05T20:51:59.006Z,98605.53
2018-12-05T20:54:28.134Z,98604.73
2018-12-05T20:56:57.202Z,98606.85
2018-12-05T20:59:26.124Z,98597.95
2018-12-05T21:01:55.196Z,98592.03
2018-12-05T21:04:24.071Z,98578.86
2018-12-05T21:06:53.046Z,98574.56
2018-12-05T21:09:21.994Z,98579.59
2018-12-05T21:11:50.927Z,98578.50
2018-12-05T21:14:20.030Z,98579.86
2018-12-05T21:16:48.899Z,98584.20
2018-12-05T21:19:17.792Z,98585.28
2018-12-05T21:21:46.746Z,98575.64
2018-12-05T21:24:15.708Z,98567.08
2018-12-05T21:26:44.613Z,98569.77
2018-12-05T21:29:13.480Z,98570.30
2018-12-05T21:31:42.427Z,98564.95
2018-12-05T21:34:11.340Z,98561.99
2018-12-05T21:36:40.196Z,98547.52
2018-12-05T21:39:09.472Z,98537.63
2018-12-05T21:41:38.328Z,98539.74
2018-12-05T21:44:07.224Z,98540.31
2018-12-05T21:46:36.143Z,98538.98
2018-12-05T21:49:05.208Z,98532.27
2018-12-05T21:51:34.111Z,98524.49
2018-12-05T21:54:02.951Z,98522.87
2018-12-05T21:56:31.915Z,98520.20
2018-12-05T21:59:00.770Z,98518.85
2018-12-05T22:01:29.686Z,98511.09
2018-12-05T22:03:58.557Z,98504.64
2018-12-05T22:06:27.417Z,98509.48
2018-12-05T22:08:56.352Z,98508.13
2018-12-05T22:11:27.034Z,98513.22
2018-12-05T22:13:55.866Z,98515.09
2018-12-05T22:16:24.688Z,98503.02
2018-12-05T22:18:53.553Z,98504.07
2018-12-05T22:21:22.398Z,98500.05
2018-12-05T22:23:51.250Z,98504.61
2018-12-05T22:26:20.232Z,98498.70
2018-12-05T22:28:49.102Z,98496.27
2018-12-05T22:31:17.941Z,98497.05
2018-12-05T22:33:46.814Z,98493.54
2018-12-05T22:36:15.666Z,98487.35
2018-12-05T22:38:45.618Z,98479.56
2018-12-05T22:41:14.455Z,98480.92
2018-12-05T22:43:44.083Z,98469.36
2018-12-05T22:46:12.975Z,98471.78
2018-12-05T22:48:41.815Z,98464.25
2018-12-05T22:51:10.646Z,98476.61
2018-12-05T22:53:39.523Z,98464.78
2018-12-05T22:56:08.803Z,98460.77
2018-12-05T22:58:37.629Z,98461.55
2018-12-05T23:01:06.739Z,98456.45
2018-12-05T23:03:37.551Z,98449.44
2018-12-05T23:06:06.391Z,98449.17
2018-12-05T23:08:35.227Z,98448.62
2018-12-05T23:11:04.398Z,98445.67
2018-12-05T23:13:33.242Z,98452.07
2018-12-05T23:16:02.187Z,98445.63
2018-12-05T23:18:31.293Z,98445.87
2018-12-05T23:21:00.194Z,98446.66
2018-12-05T23:23:29.024Z,98442.62
2018-12-05T23:25:57.858Z,98434.84
2018-12-05T23:28:26.768Z,98439.95
2018-12-05T23:30:55.668Z,98433.17
2018-12-05T23:33:24.568Z,98429.97
2018-12-05T23:35:53.408Z,98422.17
2018-12-05T23:38:22.242Z,98420.83
2018-12-05T23:40:51.101Z,98420.02
2018-12-05T23:43:20.010Z,98414.07
2018-12-05T23:45:48.900Z,98418.10
2018-12-05T23:48:17.836Z,98401.13
2018-12-05T23:50:46.684Z,98404.92
2018-12-05T23:53:15.565Z,98405.72
2018-12-05T23:55:44.480Z,98392.73
2018-12-05T23:58:13.357Z,98381.19
